VJC893 VVTS-WADD
Flight info
| Callsign | VJC893 |
|---|---|
| Flight time | 3h 12m |
| Altitude | 33000 |
| Route | NIXIV5A NIXIV L643 CN L644 DUDIS/N0464F330 L644 OBGET G580 NIMIX N875 PNK G464 KOLTA |
| Aircraft | A21N/M-SDE2E3FGHIRWXY/LB1 |
Departure
| Time | 2026-05-06 12:46 |
|---|---|
| Airport | Tan Son Nhat International Airport (VVTS) |
Arrival
| Time | 2026-05-06 15:59 |
|---|---|
| Airport | Denpasar I Gusti Ngurah Rai International Airport (WADD) |
| Time | Latitude | Longitude | Altitude | Speed | Heading |
|---|---|---|---|---|---|
| 2026-05-06 12:14 | 10.81780 | 106.66439 | 43 ft | 0 kts | 159° |
| 2026-05-06 12:38 | 10.81796 | 106.66432 | 44 ft | 4 kts | 159° |
| 2026-05-06 12:38 | 10.81822 | 106.66423 | 42 ft | 4 kts | 159° |
| 2026-05-06 12:38 | 10.81843 | 106.66415 | 41 ft | 4 kts | 149° |
| 2026-05-06 12:38 | 10.81859 | 106.66397 | 40 ft | 6 kts | 103° |
| 2026-05-06 12:39 | 10.81859 | 106.66371 | 42 ft | 6 kts | 75° |
| 2026-05-06 12:39 | 10.81854 | 106.66355 | 41 ft | 0 kts | 69° |
| 2026-05-06 12:42 | 10.81861 | 106.66375 | 42 ft | 5 kts | 69° |
| 2026-05-06 12:42 | 10.81875 | 106.66410 | 44 ft | 6 kts | 69° |
| 2026-05-06 12:42 | 10.81891 | 106.66455 | 44 ft | 7 kts | 69° |
| 2026-05-06 12:43 | 10.81912 | 106.66508 | 44 ft | 9 kts | 69° |
| 2026-05-06 12:43 | 10.81935 | 106.66571 | 44 ft | 10 kts | 69° |
| 2026-05-06 12:43 | 10.81963 | 106.66644 | 44 ft | 12 kts | 69° |
| 2026-05-06 12:43 | 10.81994 | 106.66725 | 44 ft | 13 kts | 69° |
| 2026-05-06 12:44 | 10.82027 | 106.66814 | 43 ft | 14 kts | 69° |
| 2026-05-06 12:44 | 10.82080 | 106.66904 | 44 ft | 15 kts | 39° |
| 2026-05-06 12:44 | 10.82166 | 106.66975 | 44 ft | 16 kts | 39° |
| 2026-05-06 12:44 | 10.82247 | 106.67012 | 42 ft | 11 kts | 345° |
| 2026-05-06 12:45 | 10.82321 | 106.66974 | 43 ft | 13 kts | 317° |
| 2026-05-06 12:45 | 10.82361 | 106.66948 | 43 ft | 5 kts | 330° |
| 2026-05-06 12:45 | 10.82329 | 106.66844 | 42 ft | 40 kts | 248° |
| 2026-05-06 12:46 | 10.82145 | 106.66351 | 43 ft | 109 kts | 248° |
| 2026-05-06 12:46 | 10.81801 | 106.65443 | 43 ft | 163 kts | 249° |
| 2026-05-06 12:46 | 10.81352 | 106.64256 | 241 ft | 185 kts | 250° |
| 2026-05-06 12:46 | 10.80891 | 106.63022 | 773 ft | 187 kts | 248° |
| 2026-05-06 12:47 | 10.80574 | 106.62208 | 1145 ft | 188 kts | 246° |
| 2026-05-06 12:47 | 10.80070 | 106.60919 | 1512 ft | 204 kts | 246° |
| 2026-05-06 12:47 | 10.79545 | 106.59542 | 1957 ft | 218 kts | 247° |
| 2026-05-06 12:47 | 10.78987 | 106.58067 | 2445 ft | 230 kts | 248° |
| 2026-05-06 12:48 | 10.78375 | 106.56478 | 2812 ft | 251 kts | 245° |
| 2026-05-06 12:48 | 10.77404 | 106.54946 | 3227 ft | 267 kts | 223° |
| 2026-05-06 12:48 | 10.75802 | 106.53965 | 3761 ft | 273 kts | 194° |
| 2026-05-06 12:48 | 10.73914 | 106.53828 | 4471 ft | 273 kts | 171° |
| 2026-05-06 12:49 | 10.72031 | 106.54142 | 5190 ft | 275 kts | 167° |
| 2026-05-06 12:49 | 10.70139 | 106.54491 | 5911 ft | 279 kts | 167° |
| 2026-05-06 12:49 | 10.68210 | 106.54830 | 6600 ft | 282 kts | 168° |
| 2026-05-06 12:49 | 10.66264 | 106.55156 | 7259 ft | 284 kts | 168° |
| 2026-05-06 12:50 | 10.64325 | 106.55472 | 7914 ft | 287 kts | 169° |
| 2026-05-06 12:50 | 10.62333 | 106.55790 | 8563 ft | 290 kts | 169° |
| 2026-05-06 12:50 | 10.60325 | 106.56109 | 9209 ft | 293 kts | 169° |
| 2026-05-06 12:50 | 10.58298 | 106.56429 | 9842 ft | 296 kts | 169° |
| 2026-05-06 12:51 | 10.56221 | 106.56757 | 10194 ft | 309 kts | 169° |
| 2026-05-06 12:51 | 10.54040 | 106.57099 | 10443 ft | 325 kts | 169° |
| 2026-05-06 12:51 | 10.51749 | 106.57458 | 10686 ft | 341 kts | 169° |
| 2026-05-06 12:51 | 10.49378 | 106.57829 | 10931 ft | 355 kts | 169° |
| 2026-05-06 12:52 | 10.46900 | 106.58216 | 11285 ft | 364 kts | 169° |
| 2026-05-06 12:52 | 10.44376 | 106.58614 | 11812 ft | 367 kts | 169° |
| 2026-05-06 12:52 | 10.41831 | 106.59014 | 12382 ft | 371 kts | 169° |
| 2026-05-06 12:52 | 10.39272 | 106.59415 | 12944 ft | 373 kts | 170° |
| 2026-05-06 12:53 | 10.36692 | 106.59816 | 13496 ft | 376 kts | 170° |
| 2026-05-06 12:53 | 10.34088 | 106.60221 | 14007 ft | 380 kts | 170° |
| 2026-05-06 12:53 | 10.31499 | 106.60623 | 14490 ft | 382 kts | 170° |
| 2026-05-06 12:53 | 10.28859 | 106.61031 | 14984 ft | 385 kts | 170° |
| 2026-05-06 12:54 | 10.26203 | 106.61443 | 15474 ft | 387 kts | 170° |
| 2026-05-06 12:54 | 10.23526 | 106.61858 | 15960 ft | 390 kts | 170° |
| 2026-05-06 12:54 | 10.20829 | 106.62320 | 16439 ft | 393 kts | 166° |
| 2026-05-06 12:54 | 10.18182 | 106.63031 | 16918 ft | 395 kts | 163° |
| 2026-05-06 12:55 | 10.15525 | 106.63796 | 17389 ft | 398 kts | 164° |
| 2026-05-06 12:55 | 10.12780 | 106.64248 | 17840 ft | 402 kts | 176° |
| 2026-05-06 12:55 | 10.09969 | 106.64269 | 18283 ft | 405 kts | 179° |
| 2026-05-06 12:55 | 10.07138 | 106.64213 | 18684 ft | 408 kts | 180° |
| 2026-05-06 12:56 | 10.04323 | 106.64157 | 19079 ft | 410 kts | 180° |
| 2026-05-06 12:56 | 10.01463 | 106.64113 | 19480 ft | 412 kts | 179° |
| 2026-05-06 12:56 | 9.98583 | 106.64078 | 19878 ft | 414 kts | 179° |
| 2026-05-06 12:56 | 9.95689 | 106.64043 | 20273 ft | 416 kts | 179° |
| 2026-05-06 12:57 | 9.92785 | 106.64010 | 20666 ft | 418 kts | 180° |
| 2026-05-06 12:57 | 9.89867 | 106.63976 | 21048 ft | 421 kts | 180° |
| 2026-05-06 12:57 | 9.86963 | 106.63942 | 21421 ft | 423 kts | 180° |
| 2026-05-06 12:57 | 9.84006 | 106.63908 | 21810 ft | 425 kts | 180° |
| 2026-05-06 12:58 | 9.81038 | 106.63873 | 22181 ft | 427 kts | 179° |
| 2026-05-06 12:58 | 9.78056 | 106.63840 | 22547 ft | 429 kts | 179° |
| 2026-05-06 12:58 | 9.75048 | 106.63806 | 22886 ft | 432 kts | 179° |
| 2026-05-06 12:58 | 9.72031 | 106.63772 | 23222 ft | 434 kts | 179° |
| 2026-05-06 12:59 | 9.69025 | 106.63736 | 23540 ft | 437 kts | 179° |
| 2026-05-06 12:59 | 9.65977 | 106.63700 | 23824 ft | 439 kts | 180° |
| 2026-05-06 12:59 | 9.62909 | 106.63665 | 24124 ft | 440 kts | 179° |
| 2026-05-06 12:59 | 9.59835 | 106.63630 | 24424 ft | 442 kts | 179° |
| 2026-05-06 13:00 | 9.56747 | 106.63594 | 24735 ft | 444 kts | 179° |
| 2026-05-06 13:00 | 9.53692 | 106.63559 | 25032 ft | 445 kts | 179° |
| 2026-05-06 13:00 | 9.50584 | 106.63524 | 25307 ft | 447 kts | 179° |
| 2026-05-06 13:00 | 9.47460 | 106.63489 | 25609 ft | 449 kts | 179° |
| 2026-05-06 13:01 | 9.44328 | 106.63452 | 25882 ft | 451 kts | 180° |
| 2026-05-06 13:01 | 9.41180 | 106.63416 | 26169 ft | 452 kts | 180° |
| 2026-05-06 13:01 | 9.38028 | 106.63380 | 26458 ft | 454 kts | 179° |
| 2026-05-06 13:01 | 9.34900 | 106.63343 | 26737 ft | 455 kts | 179° |
| 2026-05-06 13:02 | 9.31723 | 106.63307 | 27031 ft | 456 kts | 179° |
| 2026-05-06 13:02 | 9.28546 | 106.63273 | 27313 ft | 457 kts | 180° |
| 2026-05-06 13:02 | 9.25350 | 106.63236 | 27567 ft | 459 kts | 179° |
| 2026-05-06 13:02 | 9.22182 | 106.63200 | 27787 ft | 461 kts | 180° |
| 2026-05-06 13:03 | 9.18959 | 106.63163 | 28044 ft | 463 kts | 180° |
| 2026-05-06 13:03 | 9.15737 | 106.63127 | 28306 ft | 464 kts | 179° |
| 2026-05-06 13:03 | 9.12506 | 106.63092 | 28670 ft | 462 kts | 179° |
| 2026-05-06 13:03 | 9.09298 | 106.63056 | 29031 ft | 461 kts | 179° |
| 2026-05-06 13:04 | 9.06083 | 106.63019 | 29300 ft | 462 kts | 180° |
| 2026-05-06 13:04 | 9.02860 | 106.62982 | 29572 ft | 462 kts | 180° |
| 2026-05-06 13:04 | 8.99640 | 106.62946 | 29859 ft | 463 kts | 180° |
| 2026-05-06 13:04 | 8.96454 | 106.62911 | 30131 ft | 462 kts | 180° |
| 2026-05-06 13:05 | 8.93238 | 106.62874 | 30418 ft | 460 kts | 180° |
| 2026-05-06 13:05 | 8.90042 | 106.62838 | 30734 ft | 457 kts | 180° |
| 2026-05-06 13:05 | 8.86858 | 106.62802 | 31017 ft | 456 kts | 180° |
| 2026-05-06 13:05 | 8.83718 | 106.62767 | 31259 ft | 455 kts | 180° |
| 2026-05-06 13:06 | 8.80547 | 106.62732 | 31475 ft | 455 kts | 180° |
| 2026-05-06 13:06 | 8.77375 | 106.62695 | 31722 ft | 455 kts | 180° |
| 2026-05-06 13:06 | 8.74206 | 106.62665 | 31971 ft | 454 kts | 179° |
| 2026-05-06 13:06 | 8.71057 | 106.62862 | 32207 ft | 452 kts | 173° |
| 2026-05-06 13:07 | 8.67924 | 106.63189 | 32436 ft | 452 kts | 173° |
| 2026-05-06 13:07 | 8.64831 | 106.63524 | 32675 ft | 451 kts | 173° |
| 2026-05-06 13:07 | 8.61712 | 106.63862 | 32845 ft | 451 kts | 173° |
| 2026-05-06 13:08 | 8.55397 | 106.64538 | 32880 ft | 460 kts | 173° |
| 2026-05-06 13:08 | 8.49006 | 106.65217 | 32864 ft | 465 kts | 173° |
| 2026-05-06 13:09 | 8.42560 | 106.65900 | 32856 ft | 465 kts | 173° |
| 2026-05-06 13:09 | 8.36399 | 106.66554 | 32855 ft | 464 kts | 173° |
| 2026-05-06 13:10 | 8.29964 | 106.67239 | 32855 ft | 465 kts | 173° |
| 2026-05-06 13:10 | 8.23510 | 106.67924 | 32856 ft | 465 kts | 173° |
| 2026-05-06 13:11 | 8.17080 | 106.68605 | 32856 ft | 464 kts | 173° |
| 2026-05-06 13:11 | 8.10669 | 106.69286 | 32852 ft | 463 kts | 173° |
| 2026-05-06 13:12 | 8.04282 | 106.69963 | 32853 ft | 464 kts | 173° |
| 2026-05-06 13:12 | 7.97843 | 106.70645 | 32850 ft | 465 kts | 173° |
| 2026-05-06 13:13 | 7.91390 | 106.71329 | 32848 ft | 466 kts | 173° |
| 2026-05-06 13:13 | 7.84981 | 106.72009 | 32850 ft | 464 kts | 173° |
| 2026-05-06 13:14 | 7.78524 | 106.72693 | 32849 ft | 465 kts | 173° |
| 2026-05-06 13:14 | 7.72065 | 106.73377 | 32854 ft | 466 kts | 173° |
| 2026-05-06 13:15 | 7.65648 | 106.74056 | 32854 ft | 466 kts | 173° |
| 2026-05-06 13:15 | 7.59193 | 106.74739 | 32853 ft | 465 kts | 173° |
| 2026-05-06 13:16 | 7.52779 | 106.75418 | 32850 ft | 465 kts | 173° |
| 2026-05-06 13:16 | 7.46318 | 106.76100 | 32852 ft | 466 kts | 173° |
| 2026-05-06 13:17 | 7.39876 | 106.76781 | 32851 ft | 466 kts | 173° |
| 2026-05-06 13:17 | 7.33473 | 106.77456 | 32852 ft | 465 kts | 173° |
| 2026-05-06 13:18 | 7.27016 | 106.78139 | 32854 ft | 466 kts | 173° |
| 2026-05-06 13:18 | 7.20595 | 106.78819 | 32854 ft | 466 kts | 173° |
| 2026-05-06 13:19 | 7.14142 | 106.79499 | 32849 ft | 466 kts | 173° |
| 2026-05-06 13:19 | 7.07687 | 106.80182 | 32851 ft | 466 kts | 173° |
| 2026-05-06 13:20 | 7.01267 | 106.80808 | 32851 ft | 467 kts | 177° |
| 2026-05-06 13:20 | 6.97983 | 106.80582 | 32855 ft | 468 kts | 189° |
| 2026-05-06 13:20 | 6.94824 | 106.79927 | 32862 ft | 468 kts | 191° |
| 2026-05-06 13:21 | 6.88472 | 106.78466 | 32861 ft | 468 kts | 192° |
| 2026-05-06 13:21 | 6.82113 | 106.77045 | 32858 ft | 468 kts | 191° |
| 2026-05-06 13:22 | 6.75781 | 106.75649 | 32852 ft | 468 kts | 191° |
| 2026-05-06 13:22 | 6.69401 | 106.74239 | 32855 ft | 468 kts | 191° |
| 2026-05-06 13:23 | 6.63063 | 106.72839 | 32859 ft | 468 kts | 191° |
| 2026-05-06 13:23 | 6.56704 | 106.71434 | 32856 ft | 468 kts | 191° |
| 2026-05-06 13:24 | 6.50330 | 106.70028 | 32857 ft | 469 kts | 191° |
| 2026-05-06 13:24 | 6.43947 | 106.68618 | 32858 ft | 470 kts | 191° |
| 2026-05-06 13:25 | 6.37553 | 106.67208 | 32860 ft | 470 kts | 191° |
| 2026-05-06 13:25 | 6.31206 | 106.65808 | 32861 ft | 470 kts | 191° |
| 2026-05-06 13:26 | 6.24820 | 106.64397 | 32862 ft | 470 kts | 191° |
| 2026-05-06 13:26 | 6.18409 | 106.62984 | 32862 ft | 469 kts | 191° |
| 2026-05-06 13:27 | 6.12061 | 106.61584 | 32855 ft | 469 kts | 191° |
| 2026-05-06 13:27 | 6.05680 | 106.60177 | 32858 ft | 469 kts | 191° |
| 2026-05-06 13:28 | 5.99286 | 106.58767 | 32858 ft | 469 kts | 191° |
| 2026-05-06 13:28 | 5.92938 | 106.57369 | 32858 ft | 469 kts | 191° |
| 2026-05-06 13:29 | 5.86538 | 106.55959 | 32860 ft | 469 kts | 191° |
| 2026-05-06 13:29 | 5.80192 | 106.54563 | 32858 ft | 469 kts | 191° |
| 2026-05-06 13:30 | 5.73812 | 106.53158 | 32861 ft | 469 kts | 191° |
| 2026-05-06 13:30 | 5.67428 | 106.51752 | 32858 ft | 469 kts | 191° |
| 2026-05-06 13:31 | 5.61084 | 106.50356 | 32859 ft | 469 kts | 191° |
| 2026-05-06 13:31 | 5.54717 | 106.48956 | 32861 ft | 468 kts | 191° |
| 2026-05-06 13:32 | 5.48332 | 106.47549 | 32861 ft | 468 kts | 191° |
| 2026-05-06 13:32 | 5.41951 | 106.46147 | 32861 ft | 469 kts | 191° |
| 2026-05-06 13:33 | 5.35596 | 106.44749 | 32864 ft | 469 kts | 191° |
| 2026-05-06 13:33 | 5.29213 | 106.43345 | 32861 ft | 470 kts | 191° |
| 2026-05-06 13:34 | 5.22818 | 106.41943 | 32859 ft | 470 kts | 191° |
| 2026-05-06 13:34 | 5.16470 | 106.40545 | 32861 ft | 469 kts | 191° |
| 2026-05-06 13:35 | 5.10074 | 106.39139 | 32869 ft | 470 kts | 191° |
| 2026-05-06 13:35 | 5.04755 | 106.37972 | 32867 ft | 471 kts | 191° |
| 2026-05-06 13:36 | 4.97293 | 106.36334 | 32864 ft | 471 kts | 191° |
| 2026-05-06 13:36 | 4.91922 | 106.35155 | 32870 ft | 471 kts | 191° |
| 2026-05-06 13:37 | 4.85556 | 106.33758 | 32867 ft | 470 kts | 191° |
| 2026-05-06 13:37 | 4.79156 | 106.32354 | 32870 ft | 470 kts | 191° |
| 2026-05-06 13:38 | 4.72796 | 106.30957 | 32870 ft | 470 kts | 191° |
| 2026-05-06 13:38 | 4.66389 | 106.29553 | 32870 ft | 471 kts | 191° |
| 2026-05-06 13:39 | 4.60019 | 106.28155 | 32870 ft | 471 kts | 191° |
| 2026-05-06 13:39 | 4.53734 | 106.26775 | 32872 ft | 470 kts | 191° |
| 2026-05-06 13:40 | 4.46283 | 106.25144 | 32873 ft | 471 kts | 191° |
| 2026-05-06 13:40 | 4.40958 | 106.23976 | 32873 ft | 471 kts | 191° |
| 2026-05-06 13:41 | 4.34539 | 106.22568 | 32871 ft | 472 kts | 191° |
| 2026-05-06 13:41 | 4.28055 | 106.21599 | 32865 ft | 471 kts | 177° |
| 2026-05-06 13:42 | 4.21591 | 106.22596 | 32876 ft | 469 kts | 168° |
| 2026-05-06 13:42 | 4.15167 | 106.23863 | 32869 ft | 469 kts | 168° |
| 2026-05-06 13:43 | 4.08783 | 106.25069 | 32870 ft | 469 kts | 168° |
| 2026-05-06 13:43 | 4.02350 | 106.26274 | 32869 ft | 469 kts | 168° |
| 2026-05-06 13:44 | 3.95912 | 106.27484 | 32870 ft | 469 kts | 168° |
| 2026-05-06 13:44 | 3.89525 | 106.28684 | 32871 ft | 470 kts | 168° |
| 2026-05-06 13:45 | 3.83084 | 106.29894 | 32870 ft | 470 kts | 168° |
| 2026-05-06 13:45 | 3.73439 | 106.31704 | 32870 ft | 470 kts | 168° |
| 2026-05-06 13:46 | 3.67042 | 106.32905 | 32874 ft | 470 kts | 168° |
| 2026-05-06 13:46 | 3.60606 | 106.34109 | 32868 ft | 470 kts | 168° |
| 2026-05-06 13:47 | 3.54174 | 106.35313 | 32873 ft | 470 kts | 168° |
| 2026-05-06 13:47 | 3.47769 | 106.36514 | 32873 ft | 470 kts | 168° |
| 2026-05-06 13:48 | 3.41320 | 106.37727 | 32872 ft | 470 kts | 168° |
| 2026-05-06 13:48 | 3.34910 | 106.38931 | 32876 ft | 470 kts | 168° |
| 2026-05-06 13:49 | 3.28453 | 106.40147 | 32880 ft | 470 kts | 168° |
| 2026-05-06 13:49 | 3.22070 | 106.41345 | 32876 ft | 469 kts | 168° |
| 2026-05-06 13:50 | 3.15645 | 106.42553 | 32879 ft | 469 kts | 168° |
| 2026-05-06 13:50 | 3.09224 | 106.43761 | 32879 ft | 469 kts | 168° |
| 2026-05-06 13:51 | 3.02805 | 106.44968 | 32879 ft | 469 kts | 168° |
| 2026-05-06 13:51 | 2.96384 | 106.46175 | 32879 ft | 469 kts | 168° |
| 2026-05-06 13:52 | 2.89959 | 106.47383 | 32881 ft | 469 kts | 168° |
| 2026-05-06 13:52 | 2.83753 | 106.48552 | 32878 ft | 469 kts | 168° |
| 2026-05-06 13:53 | 2.77327 | 106.49762 | 32878 ft | 469 kts | 168° |
| 2026-05-06 13:53 | 2.70904 | 106.50971 | 32879 ft | 469 kts | 168° |
| 2026-05-06 13:54 | 2.64520 | 106.52168 | 32881 ft | 469 kts | 168° |
| 2026-05-06 13:54 | 2.58094 | 106.53374 | 32882 ft | 469 kts | 168° |
| 2026-05-06 13:55 | 2.51708 | 106.54596 | 32879 ft | 469 kts | 166° |
| 2026-05-06 13:55 | 2.48670 | 106.55757 | 32877 ft | 467 kts | 150° |
| 2026-05-06 13:56 | 2.45739 | 106.57965 | 32880 ft | 466 kts | 134° |
| 2026-05-06 13:57 | 2.41789 | 106.63101 | 32882 ft | 466 kts | 125° |
| 2026-05-06 13:57 | 2.37991 | 106.68354 | 32879 ft | 466 kts | 126° |
| 2026-05-06 13:58 | 2.34163 | 106.73552 | 32881 ft | 465 kts | 126° |
| 2026-05-06 13:58 | 2.30315 | 106.78764 | 32882 ft | 465 kts | 126° |
| 2026-05-06 13:59 | 2.26461 | 106.83979 | 32882 ft | 465 kts | 126° |
| 2026-05-06 13:59 | 2.22631 | 106.89168 | 32882 ft | 465 kts | 126° |
| 2026-05-06 14:00 | 2.18774 | 106.94396 | 32881 ft | 465 kts | 126° |
| 2026-05-06 14:00 | 2.14919 | 106.99618 | 32882 ft | 466 kts | 126° |
| 2026-05-06 14:01 | 2.11094 | 107.04798 | 32882 ft | 466 kts | 126° |
| 2026-05-06 14:01 | 2.07240 | 107.10018 | 32882 ft | 465 kts | 126° |
| 2026-05-06 14:02 | 2.03392 | 107.15230 | 32884 ft | 465 kts | 126° |
| 2026-05-06 14:02 | 1.99569 | 107.20401 | 32885 ft | 465 kts | 126° |
| 2026-05-06 14:03 | 1.95716 | 107.25613 | 32883 ft | 465 kts | 126° |
| 2026-05-06 14:03 | 1.91872 | 107.30818 | 32882 ft | 465 kts | 126° |
| 2026-05-06 14:04 | 1.88027 | 107.36025 | 32882 ft | 465 kts | 126° |
| 2026-05-06 14:04 | 1.84204 | 107.41199 | 32884 ft | 465 kts | 126° |
| 2026-05-06 14:05 | 1.80359 | 107.46402 | 32882 ft | 465 kts | 126° |
| 2026-05-06 14:05 | 1.76511 | 107.51606 | 32882 ft | 465 kts | 126° |
| 2026-05-06 14:06 | 1.72670 | 107.56804 | 32886 ft | 465 kts | 126° |
| 2026-05-06 14:06 | 1.68849 | 107.61975 | 32885 ft | 465 kts | 126° |
| 2026-05-06 14:07 | 1.65004 | 107.67178 | 32881 ft | 465 kts | 126° |
| 2026-05-06 14:07 | 1.61152 | 107.72389 | 32882 ft | 465 kts | 126° |
| 2026-05-06 14:08 | 1.57334 | 107.77552 | 32881 ft | 465 kts | 126° |
| 2026-05-06 14:08 | 1.53483 | 107.82759 | 32882 ft | 465 kts | 126° |
| 2026-05-06 14:09 | 1.49638 | 107.87959 | 32882 ft | 465 kts | 126° |
| 2026-05-06 14:09 | 1.45788 | 107.93169 | 32882 ft | 465 kts | 126° |
| 2026-05-06 14:10 | 1.41946 | 107.98326 | 32876 ft | 465 kts | 129° |
| 2026-05-06 14:10 | 1.37344 | 108.02880 | 32879 ft | 465 kts | 137° |
| 2026-05-06 14:11 | 1.32585 | 108.07270 | 32878 ft | 465 kts | 137° |
| 2026-05-06 14:11 | 1.27860 | 108.11648 | 32878 ft | 465 kts | 137° |
| 2026-05-06 14:12 | 1.23105 | 108.16059 | 32879 ft | 465 kts | 137° |
| 2026-05-06 14:12 | 1.18360 | 108.20460 | 32879 ft | 465 kts | 137° |
| 2026-05-06 14:13 | 1.13645 | 108.24831 | 32877 ft | 465 kts | 137° |
| 2026-05-06 14:13 | 1.08902 | 108.29232 | 32876 ft | 465 kts | 137° |
| 2026-05-06 14:14 | 1.04158 | 108.33624 | 32878 ft | 464 kts | 137° |
| 2026-05-06 14:14 | 0.99423 | 108.38008 | 32879 ft | 464 kts | 136° |
| 2026-05-06 14:15 | 0.94685 | 108.42397 | 32883 ft | 464 kts | 137° |
| 2026-05-06 14:15 | 0.89989 | 108.46754 | 32878 ft | 463 kts | 136° |
| 2026-05-06 14:16 | 0.85269 | 108.51126 | 32879 ft | 463 kts | 136° |
| 2026-05-06 14:16 | 0.80542 | 108.55502 | 32879 ft | 463 kts | 136° |
| 2026-05-06 14:17 | 0.75818 | 108.59874 | 32880 ft | 462 kts | 136° |
| 2026-05-06 14:17 | 0.71115 | 108.64230 | 32878 ft | 463 kts | 136° |
| 2026-05-06 14:18 | 0.66383 | 108.68617 | 32880 ft | 464 kts | 136° |
| 2026-05-06 14:18 | 0.61647 | 108.73008 | 32882 ft | 464 kts | 136° |
| 2026-05-06 14:19 | 0.56907 | 108.77390 | 32877 ft | 464 kts | 136° |
| 2026-05-06 14:19 | 0.52206 | 108.81756 | 32876 ft | 464 kts | 136° |
| 2026-05-06 14:20 | 0.47468 | 108.86146 | 32881 ft | 464 kts | 136° |
| 2026-05-06 14:20 | 0.42717 | 108.90544 | 32881 ft | 464 kts | 136° |
| 2026-05-06 14:21 | 0.37979 | 108.94933 | 32882 ft | 464 kts | 136° |
| 2026-05-06 14:21 | 0.33274 | 108.99289 | 32882 ft | 464 kts | 136° |
| 2026-05-06 14:22 | 0.28544 | 109.03690 | 32881 ft | 464 kts | 136° |
| 2026-05-06 14:22 | 0.23817 | 109.08085 | 32882 ft | 464 kts | 136° |
| 2026-05-06 14:23 | 0.19077 | 109.12476 | 32883 ft | 464 kts | 136° |
| 2026-05-06 14:23 | 0.14380 | 109.16830 | 32879 ft | 462 kts | 136° |
| 2026-05-06 14:24 | 0.10457 | 109.20463 | 32883 ft | 462 kts | 136° |
| 2026-05-06 14:24 | 0.05729 | 109.24838 | 32883 ft | 462 kts | 136° |
| 2026-05-06 14:25 | 0.01038 | 109.29186 | 32879 ft | 462 kts | 136° |
| 2026-05-06 14:25 | -0.03694 | 109.33568 | 32875 ft | 464 kts | 136° |
| 2026-05-06 14:26 | -0.08467 | 109.37940 | 32875 ft | 464 kts | 138° |
| 2026-05-06 14:26 | -0.13340 | 109.42113 | 32876 ft | 464 kts | 139° |
| 2026-05-06 14:27 | -0.18261 | 109.46315 | 32879 ft | 464 kts | 138° |
| 2026-05-06 14:27 | -0.23154 | 109.50497 | 32875 ft | 462 kts | 138° |
| 2026-05-06 14:28 | -0.28014 | 109.54647 | 32875 ft | 462 kts | 138° |
| 2026-05-06 14:28 | -0.32898 | 109.58825 | 32874 ft | 462 kts | 138° |
| 2026-05-06 14:29 | -0.37792 | 109.63012 | 32872 ft | 464 kts | 139° |
| 2026-05-06 14:29 | -0.42686 | 109.67193 | 32873 ft | 465 kts | 139° |
| 2026-05-06 14:30 | -0.47606 | 109.71398 | 32876 ft | 465 kts | 139° |
| 2026-05-06 14:30 | -0.52525 | 109.75610 | 32876 ft | 465 kts | 139° |
| 2026-05-06 14:31 | -0.57418 | 109.79789 | 32875 ft | 465 kts | 139° |
| 2026-05-06 14:31 | -0.62359 | 109.84014 | 32876 ft | 466 kts | 139° |
| 2026-05-06 14:32 | -0.67286 | 109.88227 | 32876 ft | 466 kts | 139° |
| 2026-05-06 14:32 | -0.72185 | 109.92417 | 32876 ft | 466 kts | 139° |
| 2026-05-06 14:33 | -0.77100 | 109.96619 | 32873 ft | 464 kts | 139° |
| 2026-05-06 14:33 | -0.82013 | 110.00818 | 32874 ft | 464 kts | 139° |
| 2026-05-06 14:34 | -0.86889 | 110.04985 | 32874 ft | 464 kts | 139° |
| 2026-05-06 14:34 | -0.91814 | 110.09195 | 32879 ft | 464 kts | 139° |
| 2026-05-06 14:35 | -0.96719 | 110.13391 | 32876 ft | 464 kts | 139° |
| 2026-05-06 14:35 | -1.01586 | 110.17554 | 32875 ft | 463 kts | 139° |
| 2026-05-06 14:36 | -1.06482 | 110.21738 | 32878 ft | 463 kts | 139° |
| 2026-05-06 14:36 | -1.11387 | 110.25934 | 32874 ft | 464 kts | 139° |
| 2026-05-06 14:37 | -1.16315 | 110.30146 | 32880 ft | 464 kts | 139° |
| 2026-05-06 14:37 | -1.21189 | 110.34318 | 32879 ft | 464 kts | 139° |
| 2026-05-06 14:38 | -1.26100 | 110.38524 | 32878 ft | 464 kts | 139° |
| 2026-05-06 14:38 | -1.30971 | 110.42755 | 32879 ft | 464 kts | 137° |
| 2026-05-06 14:39 | -1.35781 | 110.47063 | 32879 ft | 464 kts | 137° |
| 2026-05-06 14:39 | -1.40572 | 110.51350 | 32883 ft | 464 kts | 137° |
| 2026-05-06 14:40 | -1.45393 | 110.55664 | 32876 ft | 464 kts | 137° |
| 2026-05-06 14:40 | -1.50218 | 110.59982 | 32878 ft | 464 kts | 137° |
| 2026-05-06 14:41 | -1.55004 | 110.64271 | 32885 ft | 464 kts | 137° |
| 2026-05-06 14:41 | -1.59820 | 110.68588 | 32886 ft | 464 kts | 137° |
| 2026-05-06 14:42 | -1.64639 | 110.72898 | 32887 ft | 464 kts | 137° |
| 2026-05-06 14:42 | -1.69459 | 110.77214 | 32887 ft | 464 kts | 137° |
| 2026-05-06 14:43 | -1.74245 | 110.81504 | 32889 ft | 464 kts | 137° |
| 2026-05-06 14:43 | -1.79067 | 110.85822 | 32886 ft | 465 kts | 137° |
| 2026-05-06 14:44 | -1.83887 | 110.90137 | 32892 ft | 465 kts | 137° |
| 2026-05-06 14:45 | -1.91090 | 110.96594 | 32888 ft | 465 kts | 137° |
| 2026-05-06 14:45 | -1.95917 | 111.00913 | 32888 ft | 465 kts | 137° |
| 2026-05-06 14:46 | -2.00733 | 111.05233 | 32884 ft | 465 kts | 137° |
| 2026-05-06 14:46 | -2.05529 | 111.09527 | 32888 ft | 465 kts | 137° |
| 2026-05-06 14:47 | -2.10360 | 111.13836 | 32888 ft | 465 kts | 137° |
| 2026-05-06 14:47 | -2.15190 | 111.18145 | 32883 ft | 464 kts | 137° |
| 2026-05-06 14:48 | -2.19980 | 111.22427 | 32885 ft | 464 kts | 137° |
| 2026-05-06 14:48 | -2.24805 | 111.26735 | 32885 ft | 464 kts | 137° |
| 2026-05-06 14:49 | -2.29629 | 111.31039 | 32880 ft | 464 kts | 137° |
| 2026-05-06 14:49 | -2.34454 | 111.35347 | 32882 ft | 464 kts | 137° |
| 2026-05-06 14:50 | -2.39255 | 111.39635 | 32882 ft | 464 kts | 137° |
| 2026-05-06 14:50 | -2.44062 | 111.43928 | 32880 ft | 464 kts | 137° |
| 2026-05-06 14:51 | -2.48893 | 111.48238 | 32880 ft | 464 kts | 137° |
| 2026-05-06 14:51 | -2.53688 | 111.52525 | 32879 ft | 464 kts | 137° |
| 2026-05-06 14:52 | -2.58512 | 111.56830 | 32874 ft | 464 kts | 137° |
| 2026-05-06 14:52 | -2.63326 | 111.61136 | 32876 ft | 464 kts | 137° |
| 2026-05-06 14:53 | -2.68121 | 111.65422 | 32878 ft | 464 kts | 137° |
| 2026-05-06 14:53 | -2.73135 | 111.69497 | 32874 ft | 465 kts | 148° |
| 2026-05-06 14:54 | -2.78767 | 111.72711 | 32876 ft | 465 kts | 149° |
| 2026-05-06 14:54 | -2.84379 | 111.75881 | 32876 ft | 465 kts | 149° |
| 2026-05-06 14:55 | -2.89982 | 111.79064 | 32877 ft | 462 kts | 149° |
| 2026-05-06 14:55 | -2.95607 | 111.82262 | 32877 ft | 465 kts | 149° |
| 2026-05-06 14:56 | -3.01203 | 111.85441 | 32879 ft | 465 kts | 149° |
| 2026-05-06 14:56 | -3.06834 | 111.88645 | 32876 ft | 465 kts | 149° |
| 2026-05-06 14:57 | -3.12472 | 111.91852 | 32876 ft | 465 kts | 149° |
| 2026-05-06 14:57 | -3.18102 | 111.95054 | 32873 ft | 465 kts | 149° |
| 2026-05-06 14:58 | -3.23696 | 111.98235 | 32873 ft | 465 kts | 149° |
| 2026-05-06 14:58 | -3.29327 | 112.01435 | 32876 ft | 465 kts | 149° |
| 2026-05-06 14:59 | -3.34960 | 112.04642 | 32876 ft | 465 kts | 149° |
| 2026-05-06 14:59 | -3.40562 | 112.07829 | 32876 ft | 465 kts | 149° |
| 2026-05-06 15:00 | -3.46196 | 112.11039 | 32876 ft | 465 kts | 149° |
| 2026-05-06 15:00 | -3.51797 | 112.14226 | 32877 ft | 465 kts | 149° |
| 2026-05-06 15:01 | -3.57418 | 112.17424 | 32875 ft | 462 kts | 149° |
| 2026-05-06 15:01 | -3.63025 | 112.20613 | 32875 ft | 463 kts | 149° |
| 2026-05-06 15:02 | -3.68608 | 112.23793 | 32876 ft | 463 kts | 149° |
| 2026-05-06 15:02 | -3.74239 | 112.26995 | 32879 ft | 464 kts | 149° |
| 2026-05-06 15:03 | -3.79863 | 112.30193 | 32880 ft | 465 kts | 149° |
| 2026-05-06 15:03 | -3.85453 | 112.33375 | 32876 ft | 464 kts | 149° |
| 2026-05-06 15:04 | -3.91082 | 112.36581 | 32876 ft | 463 kts | 149° |
| 2026-05-06 15:04 | -3.96625 | 112.39742 | 32873 ft | 460 kts | 149° |
| 2026-05-06 15:05 | -4.02218 | 112.42932 | 32875 ft | 464 kts | 149° |
| 2026-05-06 15:05 | -4.07828 | 112.46131 | 32876 ft | 462 kts | 149° |
| 2026-05-06 15:06 | -4.13422 | 112.49320 | 32879 ft | 465 kts | 149° |
| 2026-05-06 15:06 | -4.19049 | 112.52526 | 32877 ft | 462 kts | 149° |
| 2026-05-06 15:07 | -4.24668 | 112.55727 | 32878 ft | 465 kts | 149° |
| 2026-05-06 15:07 | -4.30283 | 112.58930 | 32877 ft | 466 kts | 149° |
| 2026-05-06 15:08 | -4.35865 | 112.62115 | 32874 ft | 465 kts | 149° |
| 2026-05-06 15:08 | -4.41499 | 112.65329 | 32872 ft | 465 kts | 150° |
| 2026-05-06 15:09 | -4.47141 | 112.68553 | 32871 ft | 467 kts | 150° |
| 2026-05-06 15:09 | -4.52752 | 112.71757 | 32873 ft | 466 kts | 149° |
| 2026-05-06 15:10 | -4.58392 | 112.74976 | 32875 ft | 467 kts | 150° |
| 2026-05-06 15:10 | -4.64025 | 112.78191 | 32873 ft | 464 kts | 150° |
| 2026-05-06 15:11 | -4.69646 | 112.81407 | 32872 ft | 465 kts | 150° |
| 2026-05-06 15:11 | -4.75250 | 112.84611 | 32873 ft | 464 kts | 150° |
| 2026-05-06 15:12 | -4.80890 | 112.87825 | 32876 ft | 466 kts | 150° |
| 2026-05-06 15:12 | -4.86501 | 112.91028 | 32877 ft | 465 kts | 150° |
| 2026-05-06 15:13 | -4.92129 | 112.94246 | 32872 ft | 465 kts | 150° |
| 2026-05-06 15:13 | -4.96812 | 112.96924 | 32874 ft | 464 kts | 150° |
| 2026-05-06 15:14 | -5.02443 | 113.00144 | 32872 ft | 467 kts | 150° |
| 2026-05-06 15:14 | -5.08086 | 113.03370 | 32874 ft | 466 kts | 150° |
| 2026-05-06 15:15 | -5.13714 | 113.06592 | 32874 ft | 468 kts | 150° |
| 2026-05-06 15:15 | -5.19378 | 113.09834 | 32873 ft | 465 kts | 150° |
| 2026-05-06 15:16 | -5.24977 | 113.13041 | 32872 ft | 464 kts | 150° |
| 2026-05-06 15:16 | -5.30631 | 113.16279 | 32874 ft | 466 kts | 151° |
| 2026-05-06 15:17 | -5.36245 | 113.19498 | 32872 ft | 467 kts | 151° |
| 2026-05-06 15:17 | -5.41890 | 113.22731 | 32876 ft | 468 kts | 150° |
| 2026-05-06 15:18 | -5.47564 | 113.25978 | 32881 ft | 467 kts | 150° |
| 2026-05-06 15:18 | -5.53185 | 113.29199 | 32880 ft | 467 kts | 150° |
| 2026-05-06 15:19 | -5.58824 | 113.32417 | 32879 ft | 465 kts | 151° |
| 2026-05-06 15:19 | -5.64483 | 113.35662 | 32878 ft | 470 kts | 151° |
| 2026-05-06 15:20 | -5.70178 | 113.38929 | 34464 ft | 472 kts | 150° |
| 2026-05-06 15:20 | -5.73036 | 113.40568 | 32723 ft | 471 kts | 151° |
| 2026-05-06 15:20 | -5.75891 | 113.42201 | 32780 ft | 471 kts | 151° |
| 2026-05-06 15:21 | -5.81552 | 113.45445 | 32867 ft | 469 kts | 151° |
| 2026-05-06 15:21 | -5.87182 | 113.48688 | 32879 ft | 467 kts | 151° |
| 2026-05-06 15:22 | -5.92835 | 113.51942 | 32880 ft | 468 kts | 151° |
| 2026-05-06 15:22 | -5.98518 | 113.55207 | 32877 ft | 470 kts | 151° |
| 2026-05-06 15:23 | -6.04187 | 113.58463 | 32875 ft | 471 kts | 152° |
| 2026-05-06 15:23 | -6.09877 | 113.61729 | 32877 ft | 471 kts | 151° |
| 2026-05-06 15:24 | -6.15576 | 113.65001 | 32875 ft | 470 kts | 152° |
| 2026-05-06 15:24 | -6.21223 | 113.68245 | 32874 ft | 471 kts | 151° |
| 2026-05-06 15:25 | -6.26919 | 113.71515 | 32880 ft | 471 kts | 151° |
| 2026-05-06 15:25 | -6.32622 | 113.74797 | 32869 ft | 473 kts | 151° |
| 2026-05-06 15:26 | -6.38338 | 113.78083 | 32871 ft | 472 kts | 151° |
| 2026-05-06 15:26 | -6.44010 | 113.81347 | 32871 ft | 471 kts | 152° |
| 2026-05-06 15:27 | -6.49711 | 113.84638 | 32872 ft | 472 kts | 151° |
| 2026-05-06 15:27 | -6.55397 | 113.87957 | 32874 ft | 472 kts | 151° |
| 2026-05-06 15:28 | -6.61081 | 113.91265 | 32874 ft | 472 kts | 151° |
| 2026-05-06 15:28 | -6.66735 | 113.94556 | 32873 ft | 472 kts | 151° |
| 2026-05-06 15:29 | -6.72425 | 113.97871 | 32875 ft | 471 kts | 152° |
| 2026-05-06 15:29 | -6.78085 | 114.01169 | 32873 ft | 472 kts | 151° |
| 2026-05-06 15:30 | -6.83783 | 114.04487 | 32874 ft | 472 kts | 151° |
| 2026-05-06 15:30 | -6.89482 | 114.07811 | 32878 ft | 472 kts | 152° |
| 2026-05-06 15:31 | -6.95118 | 114.11111 | 32876 ft | 472 kts | 152° |
| 2026-05-06 15:31 | -7.00816 | 114.14437 | 32877 ft | 473 kts | 152° |
| 2026-05-06 15:32 | -7.09360 | 114.19421 | 32538 ft | 465 kts | 151° |
| 2026-05-06 15:32 | -7.12125 | 114.21034 | 32119 ft | 456 kts | 151° |
| 2026-05-06 15:32 | -7.14877 | 114.22641 | 31453 ft | 455 kts | 152° |
| 2026-05-06 15:33 | -7.17581 | 114.24220 | 30740 ft | 454 kts | 152° |
| 2026-05-06 15:33 | -7.20304 | 114.25812 | 30025 ft | 452 kts | 152° |
| 2026-05-06 15:33 | -7.23033 | 114.27406 | 29163 ft | 452 kts | 152° |
| 2026-05-06 15:33 | -7.25761 | 114.28998 | 28307 ft | 453 kts | 152° |
| 2026-05-06 15:34 | -7.28487 | 114.30590 | 27530 ft | 453 kts | 152° |
| 2026-05-06 15:34 | -7.31212 | 114.32181 | 26794 ft | 451 kts | 151° |
| 2026-05-06 15:34 | -7.33921 | 114.33766 | 26073 ft | 450 kts | 152° |
| 2026-05-06 15:34 | -7.36628 | 114.35348 | 25395 ft | 448 kts | 151° |
| 2026-05-06 15:35 | -7.39315 | 114.36919 | 24708 ft | 446 kts | 150° |
| 2026-05-06 15:35 | -7.42000 | 114.38485 | 24007 ft | 443 kts | 152° |
| 2026-05-06 15:35 | -7.44764 | 114.39734 | 23263 ft | 439 kts | 163° |
| 2026-05-06 15:35 | -7.47748 | 114.40220 | 22643 ft | 430 kts | 180° |
| 2026-05-06 15:36 | -7.50695 | 114.39989 | 22259 ft | 419 kts | 188° |
| 2026-05-06 15:36 | -7.53546 | 114.39573 | 21936 ft | 408 kts | 189° |
| 2026-05-06 15:36 | -7.56330 | 114.39152 | 21630 ft | 398 kts | 189° |
| 2026-05-06 15:36 | -7.59029 | 114.38754 | 21345 ft | 399 kts | 188° |
| 2026-05-06 15:37 | -7.61778 | 114.38361 | 21041 ft | 393 kts | 188° |
| 2026-05-06 15:37 | -7.64468 | 114.37986 | 20731 ft | 390 kts | 188° |
| 2026-05-06 15:37 | -7.67149 | 114.37618 | 20420 ft | 387 kts | 188° |
| 2026-05-06 15:37 | -7.69793 | 114.37340 | 20117 ft | 385 kts | 182° |
| 2026-05-06 15:38 | -7.72458 | 114.37614 | 19812 ft | 383 kts | 167° |
| 2026-05-06 15:38 | -7.74970 | 114.38518 | 19528 ft | 383 kts | 158° |
| 2026-05-06 15:38 | -7.77402 | 114.39600 | 19214 ft | 381 kts | 157° |
| 2026-05-06 15:38 | -7.79821 | 114.40686 | 18913 ft | 379 kts | 157° |
| 2026-05-06 15:39 | -7.82243 | 114.41757 | 18616 ft | 378 kts | 157° |
| 2026-05-06 15:39 | -7.84642 | 114.42808 | 18318 ft | 375 kts | 158° |
| 2026-05-06 15:39 | -7.87011 | 114.43838 | 18001 ft | 374 kts | 158° |
| 2026-05-06 15:39 | -7.89399 | 114.44877 | 17678 ft | 372 kts | 158° |
| 2026-05-06 15:40 | -7.91766 | 114.45906 | 17362 ft | 369 kts | 158° |
| 2026-05-06 15:40 | -7.94114 | 114.46926 | 17058 ft | 367 kts | 157° |
| 2026-05-06 15:40 | -7.96457 | 114.47946 | 16734 ft | 363 kts | 158° |
| 2026-05-06 15:40 | -7.98765 | 114.48949 | 16272 ft | 358 kts | 158° |
| 2026-05-06 15:41 | -8.01047 | 114.49940 | 15733 ft | 355 kts | 157° |
| 2026-05-06 15:41 | -8.03276 | 114.50909 | 15232 ft | 352 kts | 157° |
| 2026-05-06 15:41 | -8.05542 | 114.51894 | 14848 ft | 354 kts | 157° |
| 2026-05-06 15:41 | -8.07812 | 114.52882 | 14516 ft | 354 kts | 157° |
| 2026-05-06 15:42 | -8.10072 | 114.53865 | 14216 ft | 352 kts | 157° |
| 2026-05-06 15:42 | -8.12321 | 114.54845 | 13911 ft | 349 kts | 157° |
| 2026-05-06 15:42 | -8.14551 | 114.55814 | 13598 ft | 349 kts | 157° |
| 2026-05-06 15:42 | -8.16735 | 114.56764 | 13259 ft | 345 kts | 156° |
| 2026-05-06 15:43 | -8.18937 | 114.57722 | 12963 ft | 344 kts | 156° |
| 2026-05-06 15:43 | -8.21142 | 114.58681 | 12667 ft | 341 kts | 156° |
| 2026-05-06 15:43 | -8.23333 | 114.59634 | 12372 ft | 343 kts | 156° |
| 2026-05-06 15:43 | -8.25516 | 114.60584 | 12074 ft | 340 kts | 156° |
| 2026-05-06 15:44 | -8.27669 | 114.61520 | 11700 ft | 338 kts | 155° |
| 2026-05-06 15:44 | -8.29827 | 114.62458 | 11338 ft | 335 kts | 156° |
| 2026-05-06 15:44 | -8.31929 | 114.63371 | 11113 ft | 322 kts | 155° |
| 2026-05-06 15:44 | -8.33953 | 114.64251 | 10929 ft | 309 kts | 155° |
| 2026-05-06 15:45 | -8.35873 | 114.65084 | 10659 ft | 301 kts | 155° |
| 2026-05-06 15:45 | -8.37791 | 114.65918 | 10209 ft | 300 kts | 154° |
| 2026-05-06 15:45 | -8.39705 | 114.66751 | 9756 ft | 299 kts | 154° |
| 2026-05-06 15:45 | -8.41610 | 114.67580 | 9308 ft | 297 kts | 154° |
| 2026-05-06 15:46 | -8.43496 | 114.68401 | 8880 ft | 294 kts | 155° |
| 2026-05-06 15:46 | -8.45376 | 114.69219 | 8418 ft | 293 kts | 155° |
| 2026-05-06 15:46 | -8.47230 | 114.70026 | 8059 ft | 288 kts | 154° |
| 2026-05-06 15:46 | -8.49063 | 114.70827 | 7669 ft | 285 kts | 155° |
| 2026-05-06 15:47 | -8.50877 | 114.71618 | 7274 ft | 282 kts | 154° |
| 2026-05-06 15:47 | -8.52672 | 114.72402 | 6895 ft | 279 kts | 155° |
| 2026-05-06 15:47 | -8.54447 | 114.73182 | 6481 ft | 277 kts | 154° |
| 2026-05-06 15:47 | -8.56066 | 114.74163 | 6095 ft | 273 kts | 140° |
| 2026-05-06 15:48 | -8.57500 | 114.75400 | 5694 ft | 270 kts | 137° |
| 2026-05-06 15:48 | -8.58907 | 114.76656 | 5270 ft | 268 kts | 138° |
| 2026-05-06 15:48 | -8.60304 | 114.77892 | 4866 ft | 266 kts | 138° |
| 2026-05-06 15:48 | -8.61693 | 114.79110 | 4478 ft | 263 kts | 137° |
| 2026-05-06 15:49 | -8.63074 | 114.80315 | 4109 ft | 260 kts | 137° |
| 2026-05-06 15:49 | -8.64435 | 114.81500 | 3744 ft | 256 kts | 137° |
| 2026-05-06 15:49 | -8.65781 | 114.82669 | 3345 ft | 254 kts | 138° |
| 2026-05-06 15:49 | -8.67120 | 114.83831 | 3044 ft | 250 kts | 138° |
| 2026-05-06 15:50 | -8.68389 | 114.84931 | 2967 ft | 235 kts | 137° |
| 2026-05-06 15:50 | -8.69193 | 114.85628 | 2960 ft | 224 kts | 137° |
| 2026-05-06 15:50 | -8.70741 | 114.86972 | 2968 ft | 217 kts | 137° |
| 2026-05-06 15:50 | -8.71889 | 114.87968 | 2985 ft | 217 kts | 138° |
| 2026-05-06 15:51 | -8.73012 | 114.88940 | 2980 ft | 203 kts | 137° |
| 2026-05-06 15:51 | -8.74037 | 114.89828 | 2968 ft | 194 kts | 136° |
| 2026-05-06 15:51 | -8.75009 | 114.90756 | 2968 ft | 183 kts | 126° |
| 2026-05-06 15:51 | -8.75492 | 114.91834 | 2878 ft | 163 kts | 102° |
| 2026-05-06 15:52 | -8.75515 | 114.92959 | 2641 ft | 156 kts | 90° |
| 2026-05-06 15:52 | -8.75500 | 114.94025 | 2460 ft | 147 kts | 92° |
| 2026-05-06 15:52 | -8.75497 | 114.95052 | 2459 ft | 144 kts | 92° |
| 2026-05-06 15:52 | -8.75511 | 114.96060 | 2473 ft | 144 kts | 93° |
| 2026-05-06 15:53 | -8.75517 | 114.97051 | 2501 ft | 131 kts | 92° |
| 2026-05-06 15:53 | -8.75517 | 114.97964 | 2500 ft | 130 kts | 94° |
| 2026-05-06 15:53 | -8.75519 | 114.98569 | 2496 ft | 129 kts | 92° |
| 2026-05-06 15:53 | -8.75525 | 114.99761 | 2428 ft | 127 kts | 91° |
| 2026-05-06 15:54 | -8.75485 | 115.00656 | 2231 ft | 127 kts | 89° |
| 2026-05-06 15:54 | -8.75451 | 115.01551 | 2000 ft | 128 kts | 91° |
| 2026-05-06 15:54 | -8.75411 | 115.02446 | 1783 ft | 127 kts | 90° |
| 2026-05-06 15:54 | -8.75376 | 115.03334 | 1740 ft | 126 kts | 90° |
| 2026-05-06 15:55 | -8.75340 | 115.04212 | 1750 ft | 127 kts | 90° |
| 2026-05-06 15:55 | -8.75307 | 115.05105 | 1757 ft | 127 kts | 89° |
| 2026-05-06 15:55 | -8.75273 | 115.05998 | 1760 ft | 127 kts | 91° |
| 2026-05-06 15:55 | -8.75234 | 115.06882 | 1692 ft | 125 kts | 89° |
| 2026-05-06 15:56 | -8.75205 | 115.07765 | 1521 ft | 126 kts | 91° |
| 2026-05-06 15:56 | -8.75166 | 115.08644 | 1345 ft | 125 kts | 89° |
| 2026-05-06 15:56 | -8.75148 | 115.09229 | 1230 ft | 126 kts | 91° |
| 2026-05-06 15:56 | -8.75099 | 115.10407 | 1004 ft | 125 kts | 89° |
| 2026-05-06 15:57 | -8.75058 | 115.11279 | 850 ft | 124 kts | 89° |
| 2026-05-06 15:57 | -8.75029 | 115.12154 | 685 ft | 126 kts | 91° |
| 2026-05-06 15:57 | -8.74999 | 115.13023 | 506 ft | 123 kts | 90° |
| 2026-05-06 15:57 | -8.74960 | 115.13885 | 334 ft | 123 kts | 89° |
| 2026-05-06 15:58 | -8.74910 | 115.14776 | 187 ft | 127 kts | 90° |
| 2026-05-06 15:58 | -8.74888 | 115.15662 | 42 ft | 127 kts | 91° |
| 2026-05-06 15:58 | -8.74855 | 115.16470 | 34 ft | 100 kts | 88° |
| 2026-05-06 15:58 | -8.74833 | 115.17005 | 34 ft | 51 kts | 87° |
| 2026-05-06 15:59 | -8.74819 | 115.17278 | 32 ft | 23 kts | 71° |
| 2026-05-06 15:59 | -8.74737 | 115.17315 | 35 ft | 13 kts | 359° |
| 2026-05-06 15:59 | -8.74711 | 115.17315 | 36 ft | 0 kts | 359° |
| 2026-05-06 16:00 | -8.74710 | 115.17315 | 36 ft | 1 kts | 359° |
| 2026-05-06 16:00 | -8.74666 | 115.17321 | 37 ft | 8 kts | 36° |
| 2026-05-06 16:00 | -8.74652 | 115.17386 | 37 ft | 11 kts | 86° |
| 2026-05-06 16:00 | -8.74649 | 115.17433 | 38 ft | 1 kts | 85° |
| 2026-05-06 16:02 | -8.74639 | 115.17444 | 38 ft | 5 kts | 26° |
| 2026-05-06 16:02 | -8.74611 | 115.17447 | 38 ft | 7 kts | 358° |
| 2026-05-06 16:02 | -8.74555 | 115.17445 | 37 ft | 9 kts | 358° |
| 2026-05-06 16:02 | -8.74526 | 115.17444 | 38 ft | 4 kts | 357° |
| 2026-05-06 16:03 | -8.74514 | 115.17443 | 38 ft | 0 kts | 357° |